Time;durP1;ratioP1;P1;durP2;ratioP2;P2;SDS_P1;SDS_P2;PMS_P1;PMS_P2;Temp;Humidity;BMP_temperature;BMP_pressure;BME280_temperature;BME280_humidity;BME280_pressure;Samples;Min_cycle;Max_cycle;Signal;HPM_P1;HPM_P2
2022/05/24 00:02:19;;;;;;;3.67;2.53;;;;;;;14.97;63.86;93047.69;5111358;28;20028;-63
2022/05/24 00:04:45;;;;;;;4.75;2.80;;;;;;;14.97;64.26;93050.47;5111425;28;20043;-62
2022/05/24 00:07:11;;;;;;;3.45;2.88;;;;;;;15.00;63.97;93046.53;5111130;28;20030;-63
2022/05/24 00:09:36;;;;;;;7.25;3.25;;;;;;;15.01;64.11;93045.19;5111135;28;20110;-63
2022/05/24 00:12:02;;;;;;;4.88;2.95;;;;;;;14.98;64.36;93042.88;5111133;28;20023;-63
2022/05/24 00:17:12;;;;;;;3.65;2.80;;;;;;;14.94;63.98;93037.75;5111337;28;20042;-63
2022/05/24 00:19:37;;;;;;;6.70;3.67;;;;;;;14.95;64.23;93052.38;5111226;28;20031;-63
2022/05/24 00:22:03;;;;;;;6.68;3.55;;;;;;;14.89;64.98;93046.38;5110954;28;20023;-63
2022/05/24 00:24:28;;;;;;;3.95;3.15;;;;;;;14.91;65.07;93047.28;5111030;28;20031;-63
2022/05/24 00:26:54;;;;;;;4.50;2.90;;;;;;;15.03;65.00;93048.13;5111206;28;20415;-63
2022/05/24 00:29:19;;;;;;;4.30;3.05;;;;;;;14.96;64.72;93043.47;5111076;28;20023;-63
2022/05/24 00:31:45;;;;;;;6.43;3.13;;;;;;;15.02;64.96;93049.44;5111068;28;20023;-49
2022/05/24 00:34:10;;;;;;;7.57;3.10;;;;;;;14.98;64.82;93045.66;5111300;28;20027;-49
2022/05/24 00:36:36;;;;;;;5.10;2.85;;;;;;;15.09;63.86;93050.63;5109474;28;20452;-51
2022/05/24 00:39:01;;;;;;;3.60;2.47;;;;;;;14.94;64.00;93026.63;5111054;28;20023;-50
2022/05/24 00:41:40;;;;;;;6.18;2.78;;;;;;;15.14;63.35;93049.56;5110918;28;20728;-49
2022/05/24 00:44:19;;;;;;;4.57;2.63;;;;;;;15.10;63.83;93046.50;5108381;28;20028;-50
2022/05/24 00:46:57;;;;;;;3.92;2.67;;;;;;;15.12;63.82;93052.19;5109939;28;20035;-49
2022/05/24 00:49:39;;;;;;;7.15;3.10;;;;;;;15.05;64.16;93051.03;5109256;28;20126;-58
2022/05/24 00:52:15;;;;;;;3.90;2.38;;;;;;;15.13;63.42;93056.47;5109479;28;20051;-58
2022/05/24 00:54:42;;;;;;;5.43;2.58;;;;;;;15.02;64.28;93046.69;5109685;28;20037;-58
2022/05/24 00:57:29;;;;;;;2.60;2.40;;;;;;;14.98;64.67;93046.41;5108972;28;20026;-57
2022/05/24 00:59:59;;;;;;;5.55;2.50;;;;;;;14.97;63.77;93058.81;5110385;28;20535;-54
2022/05/24 01:02:25;;;;;;;5.38;3.15;;;;;;;15.00;63.91;93060.44;5110747;28;20019;-54
2022/05/24 01:04:50;;;;;;;3.95;2.70;;;;;;;14.91;63.95;93055.63;5110716;28;20432;-54
2022/05/24 01:07:15;;;;;;;5.40;3.33;;;;;;;14.98;63.74;93054.72;5110396;28;20437;-55
2022/05/24 01:09:46;;;;;;;5.35;3.15;;;;;;;14.92;64.35;93051.50;5110738;28;20030;-55
2022/05/24 01:12:32;;;;;;;3.05;2.70;;;;;;;15.04;63.87;93060.72;5110727;28;20077;-54
2022/05/24 01:14:59;;;;;;;5.45;3.00;;;;;;;15.05;64.20;93059.38;5109255;28;20152;-52
2022/05/24 01:17:24;;;;;;;4.65;2.75;;;;;;;14.88;64.41;93056.03;5110633;28;20405;-54
2022/05/24 01:19:50;;;;;;;3.95;2.83;;;;;;;14.71;64.86;93062.50;5109362;28;20049;-52
2022/05/24 01:22:34;;;;;;;10.60;3.55;;;;;;;14.74;64.88;93071.72;5110635;28;20546;-53
2022/05/24 01:25:20;;;;;;;4.45;3.00;;;;;;;14.68;64.51;93062.94;5110445;28;20177;-51
2022/05/24 01:27:45;;;;;;;8.25;2.92;;;;;;;14.64;65.52;93062.66;5113107;28;20032;-54
2022/05/24 01:30:11;;;;;;;5.18;2.75;;;;;;;14.72;65.29;93063.97;5114436;28;20035;-56
2022/05/24 01:38:08;;;;;;;4.30;2.83;;;;;;;14.80;65.18;93056.19;5113386;28;20034;-54
2022/05/24 01:40:34;;;;;;;5.93;2.78;;;;;;;14.81;65.22;93052.09;5113156;28;20081;-55
2022/05/24 01:42:59;;;;;;;5.15;3.10;;;;;;;14.83;64.97;93051.53;5112596;28;20028;-55
2022/05/24 01:45:35;;;;;;;4.50;3.15;;;;;;;14.76;65.32;93052.41;5114069;27;20119;-59
2022/05/24 01:48:10;;;;;;;3.20;2.90;;;;;;;14.65;66.05;93045.38;5112632;28;20036;-58
2022/05/24 01:50:36;;;;;;;8.13;3.50;;;;;;;14.75;65.69;93046.09;5114145;28;20031;-58
2022/05/24 01:53:21;;;;;;;4.00;2.88;;;;;;;14.82;64.68;93042.44;5113751;28;20488;-60
2022/05/24 01:55:52;;;;;;;5.15;2.75;;;;;;;14.70;65.72;93049.94;5114014;28;20028;-61
2022/05/24 01:58:20;;;;;;;3.72;3.03;;;;;;;14.71;65.44;93042.28;5112184;28;20051;-60
2022/05/24 02:00:49;;;;;;;10.65;2.63;;;;;;;14.78;65.26;93049.75;5112735;28;20475;-59
2022/05/24 02:03:15;;;;;;;8.88;2.75;;;;;;;14.81;65.17;93054.16;5112607;28;20389;-59
2022/05/24 02:05:41;;;;;;;4.22;2.80;;;;;;;14.84;64.97;93058.53;5113495;28;20046;-59
2022/05/24 02:08:08;;;;;;;4.72;2.92;;;;;;;14.76;65.02;93052.41;5113794;28;20027;-59
2022/05/24 02:10:44;;;;;;;6.03;2.88;;;;;;;14.82;64.45;93069.50;5113763;27;20023;-60
2022/05/24 02:13:11;;;;;;;6.18;2.75;;;;;;;14.97;64.17;93067.16;5113344;28;20024;-59
2022/05/24 02:15:39;;;;;;;7.07;2.72;;;;;;;14.91;64.38;93063.94;5112197;28;20042;-60
2022/05/24 02:18:11;;;;;;;7.80;2.92;;;;;;;14.88;64.53;93047.69;5112428;28;20568;-59
2022/05/24 02:20:39;;;;;;;6.28;3.22;;;;;;;14.78;65.60;93053.28;5112121;28;20037;-59
2022/05/24 02:23:05;;;;;;;4.15;3.17;;;;;;;14.80;65.05;93058.25;5113541;28;20073;-60
2022/05/24 02:25:35;;;;;;;4.43;3.30;;;;;;;14.92;64.36;93068.19;5113333;28;20374;-59
2022/05/24 02:28:02;;;;;;;12.23;3.40;;;;;;;14.87;65.44;93072.00;5113136;28;20027;-60
2022/05/24 02:30:29;;;;;;;7.55;3.47;;;;;;;14.78;65.78;93067.19;5112962;28;20028;-61
2022/05/24 02:32:54;;;;;;;5.80;3.13;;;;;;;14.84;65.29;93056.50;5113369;28;20027;-60
2022/05/24 02:35:20;;;;;;;5.63;2.80;;;;;;;14.74;66.31;93036.31;5113192;27;20024;-60
2022/05/24 02:37:45;;;;;;;3.50;2.65;;;;;;;14.89;65.79;93060.28;5112726;28;20027;-60
2022/05/24 02:42:56;;;;;;;5.93;2.97;;;;;;;14.99;65.62;93063.78;5102473;28;20035;-56
2022/05/24 02:45:22;;;;;;;4.30;2.75;;;;;;;15.06;64.51;93062.91;5092641;28;20028;-58
2022/05/24 02:47:48;;;;;;;3.20;2.88;;;;;;;14.98;64.73;93056.78;5092265;28;20020;-57
2022/05/24 02:50:13;;;;;;;4.13;2.75;;;;;;;15.03;64.77;93059.25;5092248;28;20031;-57
2022/05/24 02:52:42;;;;;;;8.65;3.15;;;;;;;14.97;64.77;93046.97;5092557;28;20023;-57
2022/05/24 02:55:09;;;;;;;4.65;2.58;;;;;;;14.96;64.84;93045.50;5092440;28;20436;-55
2022/05/24 02:57:35;;;;;;;4.43;3.05;;;;;;;14.92;64.96;93048.72;5104069;28;20412;-53
2022/05/24 03:00:01;;;;;;;5.18;2.80;;;;;;;14.90;65.34;93059.69;5112319;28;20066;-55
2022/05/24 03:02:26;;;;;;;3.70;2.80;;;;;;;14.84;65.11;93059.28;5112639;28;20057;-51
2022/05/24 03:04:52;;;;;;;2.58;2.38;;;;;;;14.78;65.43;93046.97;5112643;27;20024;-52
2022/05/24 03:10:01;;;;;;;7.30;2.85;;;;;;;14.88;65.15;93054.00;5112608;28;20050;-54
2022/05/24 03:15:11;;;;;;;9.02;3.40;;;;;;;14.90;65.06;93054.13;5112412;28;20515;-54
2022/05/24 03:17:36;;;;;;;12.93;6.38;;;;;;;14.89;65.25;93063.81;5112412;28;20040;-54
2022/05/24 03:20:03;;;;;;;20.05;5.40;;;;;;;14.84;65.87;93075.94;5110990;28;20067;-55
2022/05/24 03:22:28;;;;;;;4.30;3.90;;;;;;;14.95;65.57;93075.34;5111968;28;20023;-55
2022/05/24 03:24:53;;;;;;;4.90;4.20;;;;;;;14.98;64.90;93079.75;5112213;28;20020;-55
2022/05/24 03:27:19;;;;;;;8.88;2.97;;;;;;;15.09;64.32;93078.41;5112158;28;20031;-56
2022/05/24 03:29:47;;;;;;;3.67;2.90;;;;;;;15.05;64.77;93087.19;5111874;28;20091;-56
2022/05/24 03:32:14;;;;;;;4.75;3.05;;;;;;;15.09;64.43;93072.88;5112051;28;20027;-55
2022/05/24 03:34:40;;;;;;;4.25;2.90;;;;;;;14.96;64.91;93085.16;5112020;28;20027;-56
2022/05/24 03:37:06;;;;;;;5.70;2.60;;;;;;;15.04;64.79;93082.97;5106161;28;20554;-55
2022/05/24 03:39:31;;;;;;;6.97;2.88;;;;;;;15.12;64.90;93082.78;5111470;28;20110;-55
2022/05/24 03:41:57;;;;;;;6.60;2.85;;;;;;;15.23;64.24;93078.69;5111654;28;20114;-55
2022/05/24 03:44:22;;;;;;;4.45;2.75;;;;;;;15.28;64.11;93072.09;5111493;28;20070;-56
2022/05/24 03:46:48;;;;;;;6.28;2.63;;;;;;;15.25;63.92;93068.44;5111760;28;20072;-58
2022/05/24 03:49:14;;;;;;;7.95;3.40;;;;;;;15.28;64.31;93072.09;5111117;28;20027;-58
2022/05/24 03:51:40;;;;;;;7.97;2.67;;;;;;;15.34;63.93;93066.94;5111382;28;20588;-58
2022/05/24 03:54:06;;;;;;;6.10;3.03;;;;;;;15.27;64.36;93068.56;5111324;28;20074;-57
2022/05/24 03:56:32;;;;;;;7.10;3.47;;;;;;;15.36;65.04;93067.09;5111235;28;20037;-57
2022/05/24 03:58:58;;;;;;;3.42;3.15;;;;;;;15.49;64.53;93075.72;5111101;28;20513;-58
2022/05/24 04:01:23;;;;;;;7.47;3.50;;;;;;;15.65;63.98;93073.34;5111533;28;20027;-58
2022/05/24 04:03:49;;;;;;;4.72;2.90;;;;;;;15.66;63.95;93072.00;5110170;28;20023;-58
2022/05/24 04:06:14;;;;;;;3.80;2.50;;;;;;;15.70;62.97;93072.31;5109760;28;20405;-58
2022/05/24 04:08:41;;;;;;;4.18;3.00;;;;;;;15.71;62.84;93080.06;5111000;28;20080;-58
2022/05/24 04:11:09;;;;;;;3.72;2.58;;;;;;;15.73;62.95;93088.53;5111132;28;20555;-58
2022/05/24 04:13:37;;;;;;;6.53;3.35;;;;;;;15.69;63.34;93082.69;5111080;28;20020;-57
2022/05/24 04:16:03;;;;;;;3.80;2.17;;;;;;;15.71;62.93;93090.44;5111308;28;20040;-57
2022/05/24 04:18:29;;;;;;;6.13;2.75;;;;;;;15.66;63.41;93085.91;5110887;28;20519;-57
2022/05/24 04:20:54;;;;;;;2.95;2.67;;;;;;;15.69;63.81;93098.66;5096905;28;20028;-58
2022/05/24 04:23:21;;;;;;;5.90;2.30;;;;;;;15.76;62.64;93087.38;5090752;28;20030;-58
2022/05/24 04:25:47;;;;;;;8.50;3.30;;;;;;;15.78;63.10;93090.28;5092834;28;20042;-58
2022/05/24 04:28:14;;;;;;;5.38;2.92;;;;;;;15.77;62.02;93071.38;5090401;28;20081;-57
2022/05/24 04:30:39;;;;;;;10.15;3.08;;;;;;;15.95;62.75;93086.56;5090066;28;20117;-57
2022/05/24 04:33:05;;;;;;;3.42;2.60;;;;;;;16.06;62.17;93082.41;5088565;28;20036;-58
2022/05/24 04:35:30;;;;;;;9.25;3.03;;;;;;;16.17;61.56;93085.28;5102145;28;20034;-58
2022/05/24 04:37:56;;;;;;;3.25;2.60;;;;;;;16.04;61.70;93066.28;5109558;28;20484;-59
2022/05/24 04:42:18;;;;;;;8.73;3.60;;;;;;;16.05;61.81;93087.22;5109525;28;20386;-55
2022/05/24 04:43:07;;;;;;;6.80;3.17;;;;;;;15.89;62.33;93075.75;5094114;28;20039;-55
2022/05/24 04:45:32;;;;;;;5.10;3.13;;;;;;;16.07;62.27;93086.66;5090113;28;20058;-56
2022/05/24 04:47:58;;;;;;;5.93;3.28;;;;;;;15.93;62.50;93089.19;5101400;28;20479;-57
2022/05/24 04:50:23;;;;;;;4.90;2.65;;;;;;;16.18;61.69;93091.56;5110263;28;20028;-54
2022/05/24 04:52:49;;;;;;;4.78;2.90;;;;;;;16.38;61.92;93096.44;5110852;28;20028;-54
2022/05/24 04:55:14;;;;;;;2.95;2.17;;;;;;;16.41;61.62;93092.47;5109633;28;20031;-53
2022/05/24 04:57:40;;;;;;;13.13;2.85;;;;;;;16.59;61.24;93090.19;5100690;28;20030;-55
2022/05/24 05:00:13;;;;;;;3.22;2.75;;;;;;;16.75;60.43;93093.31;5110578;28;20044;-54
2022/05/24 05:02:39;;;;;;;5.60;2.75;;;;;;;16.88;60.78;93099.06;5115099;28;20408;-56
2022/05/24 05:05:05;;;;;;;5.13;2.90;;;;;;;17.01;59.72;93108.97;5114806;28;20028;-57
2022/05/24 05:07:30;;;;;;;3.08;2.75;;;;;;;17.05;58.70;93100.84;5114563;28;20488;-57
2022/05/24 05:09:56;;;;;;;12.55;2.70;;;;;;;17.06;59.66;93105.84;5114971;28;20039;-59
2022/05/24 05:12:21;;;;;;;2.78;2.03;;;;;;;17.26;58.73;93107.13;5102381;28;20910;-59
2022/05/24 05:14:47;;;;;;;3.00;2.58;;;;;;;17.36;57.89;93112.63;5094421;28;20020;-58
2022/05/24 05:17:12;;;;;;;8.15;2.67;;;;;;;17.36;58.80;93104.25;5100719;28;20047;-57
2022/05/24 05:19:38;;;;;;;13.38;3.65;;;;;;;17.32;59.18;93112.38;5114422;28;20626;-57
2022/05/24 05:22:05;;;;;;;7.13;2.70;;;;;;;17.44;58.12;93113.88;5098324;28;20036;-57
2022/05/24 05:24:31;;;;;;;6.80;2.65;;;;;;;17.49;58.08;93119.69;5101405;28;20035;-58
2022/05/24 05:26:57;;;;;;;8.82;2.78;;;;;;;17.53;57.72;93129.09;5114555;28;20027;-56
2022/05/24 05:32:30;;;;;;;6.53;2.80;;;;;;;17.59;57.07;93129.47;5078904;28;20036;-57
2022/05/24 05:34:56;;;;;;;3.03;2.72;;;;;;;17.28;58.09;93115.63;5093389;28;20039;-57
2022/05/24 05:37:23;;;;;;;9.02;3.00;;;;;;;17.10;58.89;93133.25;5093617;28;20611;-59
2022/05/24 05:39:48;;;;;;;7.57;2.60;;;;;;;17.10;58.42;93130.47;5093646;28;20505;-59
2022/05/24 05:42:16;;;;;;;5.55;2.90;;;;;;;17.18;58.78;93133.78;5093593;28;20042;-59
2022/05/24 05:44:42;;;;;;;3.07;2.73;;;;;;;17.51;57.91;93134.53;5093790;28;20401;-58
2022/05/24 05:47:07;;;;;;;7.63;2.53;;;;;;;17.55;57.50;93122.91;5095687;28;20031;-58
2022/05/24 05:49:33;;;;;;;5.30;2.40;;;;;;;17.84;57.20;93126.88;5106369;28;20031;-57
2022/05/24 05:51:59;;;;;;;5.68;2.50;;;;;;;18.33;56.00;93129.81;5113159;28;20106;-59
2022/05/24 05:54:24;;;;;;;4.25;2.17;;;;;;;18.65;54.54;93129.72;5112361;28;20024;-58
2022/05/24 05:56:50;;;;;;;2.97;2.50;;;;;;;18.90;53.73;93129.81;5111857;28;20465;-57
2022/05/24 05:59:16;;;;;;;3.90;2.13;;;;;;;19.17;53.43;93129.22;5112181;28;20115;-56
2022/05/24 06:01:42;;;;;;;6.75;3.20;;;;;;;18.59;53.89;93129.34;5098959;28;20077;-54
2022/05/24 06:04:09;;;;;;;3.97;2.28;;;;;;;18.46;54.14;93134.81;5098344;28;20031;-55
2022/05/24 06:06:38;;;;;;;4.72;2.72;;;;;;;18.36;54.14;93126.56;5104329;28;20041;-57
2022/05/24 06:09:03;;;;;;;7.65;2.70;;;;;;;18.35;54.51;93139.06;5113134;28;20474;-57
2022/05/24 06:11:29;;;;;;;4.40;2.67;;;;;;;18.41;55.34;93136.63;5112729;28;20034;-58
2022/05/24 06:13:55;;;;;;;2.70;2.50;;;;;;;18.56;54.45;93143.84;5113635;28;20020;-57
2022/05/24 06:16:21;;;;;;;5.63;2.67;;;;;;;18.54;54.21;93141.63;5113520;28;20031;-57
2022/05/24 06:18:46;;;;;;;3.00;2.30;;;;;;;18.50;53.72;93129.47;5113289;28;20600;-58
2022/05/24 06:21:12;;;;;;;4.95;2.63;;;;;;;18.61;53.92;93137.13;5113162;28;20027;-57
2022/05/24 06:23:37;;;;;;;8.07;2.90;;;;;;;18.50;53.67;93141.38;5113100;28;20024;-57
2022/05/24 06:26:03;;;;;;;2.58;2.30;;;;;;;18.68;53.63;93145.28;5113360;28;20027;-58
2022/05/24 06:28:28;;;;;;;5.15;2.60;;;;;;;19.03;52.40;93128.44;5112977;28;20077;-58
2022/05/24 06:30:54;;;;;;;4.70;2.60;;;;;;;19.39;50.83;93144.53;5113014;28;20027;-58
2022/05/24 06:33:20;;;;;;;3.25;2.53;;;;;;;19.34;50.73;93148.44;5113280;28;20031;-58
2022/05/24 06:35:45;;;;;;;4.05;2.75;;;;;;;18.69;53.03;93143.91;5110802;28;20028;-58
2022/05/24 06:38:12;;;;;;;3.17;2.70;;;;;;;18.66;52.82;93147.22;5113191;28;20385;-59
2022/05/24 06:40:38;;;;;;;12.63;3.03;;;;;;;18.87;53.22;93141.47;5108806;28;20058;-55
2022/05/24 06:43:04;;;;;;;6.32;4.05;;;;;;;19.00;53.65;93148.50;5111446;27;20059;-58
2022/05/24 06:45:29;;;;;;;4.25;2.63;;;;;;;19.14;52.90;93150.06;5104227;28;20024;-55
2022/05/24 06:47:55;;;;;;;3.65;2.47;;;;;;;19.17;52.18;93143.22;5097292;28;20031;-58
2022/05/24 06:50:21;;;;;;;4.53;2.80;;;;;;;18.97;52.28;93130.88;5092507;28;20055;-52
2022/05/24 06:52:47;;;;;;;5.18;2.67;;;;;;;18.71;52.91;93126.56;5092339;28;20390;-50
2022/05/24 06:55:13;;;;;;;3.97;2.45;;;;;;;18.62;53.69;93114.16;5094482;28;20044;-59
2022/05/24 06:57:39;;;;;;;6.82;2.70;;;;;;;18.73;54.26;93109.88;5108145;28;20024;-59
2022/05/24 07:03:06;;;;;;;4.13;2.28;;;;;;;19.02;53.18;93112.97;5098442;28;20038;-59
2022/05/24 07:05:32;;;;;;;4.10;2.65;;;;;;;19.26;53.63;93111.56;5112007;28;20083;-58
2022/05/24 07:08:00;;;;;;;8.85;2.75;;;;;;;19.73;51.71;93117.69;5112339;28;20031;-56
2022/05/24 07:10:25;;;;;;;8.10;2.35;;;;;;;19.96;50.16;93140.00;5112590;28;20110;-59
2022/05/24 07:12:59;;;;;;;2.85;2.05;;;;;;;20.50;49.68;93141.47;5110555;28;20163;-58
2022/05/24 07:15:25;;;;;;;12.50;2.88;;;;;;;20.60;49.62;93136.38;5104641;28;20027;-59
2022/05/24 07:17:50;;;;;;;5.70;3.15;;;;;;;21.08;48.19;93134.00;5106566;28;20099;-57
2022/05/24 07:20:16;;;;;;;4.13;2.15;;;;;;;21.94;46.24;93125.56;5100694;28;20051;-59
2022/05/24 07:22:42;;;;;;;3.10;2.40;;;;;;;22.72;43.88;93127.72;5099352;28;21396;-60
2022/05/24 07:25:08;;;;;;;7.45;2.75;;;;;;;23.55;42.63;93115.06;5100892;28;20149;-58
2022/05/24 07:27:33;;;;;;;2.47;1.98;;;;;;;24.51;39.54;93129.47;5102102;28;20023;-58
2022/05/24 07:29:59;;;;;;;3.45;2.28;;;;;;;24.23;39.62;93128.38;5102586;28;20099;-57
2022/05/24 07:32:24;;;;;;;3.75;2.17;;;;;;;24.13;39.29;93125.88;5099483;28;20031;-58
2022/05/24 07:34:50;;;;;;;4.88;2.22;;;;;;;23.45;40.57;93129.50;5101115;28;20031;-57
2022/05/24 07:37:17;;;;;;;3.03;2.40;;;;;;;23.09;41.80;93139.19;5101610;28;20488;-59
2022/05/24 07:39:43;;;;;;;4.53;2.33;;;;;;;22.67;42.58;93140.91;5104998;28;20027;-55
2022/05/24 07:47:37;;;;;;;3.72;2.22;;;;;;;22.13;44.22;93136.31;5101546;28;20039;-58
2022/05/24 07:50:04;;;;;;;5.30;3.15;;;;;;;21.67;44.89;93139.69;5101179;28;20024;-52
2022/05/24 07:52:29;;;;;;;6.43;3.10;;;;;;;21.42;45.36;93139.88;5101295;28;20450;-58
2022/05/24 07:54:55;;;;;;;6.05;2.42;;;;;;;21.41;45.88;93138.41;5099647;28;20119;-59
2022/05/24 07:57:20;;;;;;;6.82;2.58;;;;;;;21.08;45.87;93145.25;5101301;28;20016;-58
2022/05/24 07:59:47;;;;;;;9.15;2.70;;;;;;;21.03;46.54;93143.56;5098830;28;20065;-57
2022/05/24 08:02:14;;;;;;;5.70;2.83;;;;;;;20.99;46.91;93142.63;5099144;28;20020;-54
2022/05/24 08:04:39;;;;;;;4.25;2.88;;;;;;;21.23;45.81;93129.09;5100809;28;20020;-56
2022/05/24 08:07:06;;;;;;;6.60;3.45;;;;;;;21.26;47.17;93127.84;5099496;28;20022;-56
2022/05/24 08:09:32;;;;;;;7.63;2.50;;;;;;;21.90;44.45;93125.38;5098889;28;20462;-56
2022/05/24 08:11:57;;;;;;;3.97;2.10;;;;;;;22.44;43.29;93132.78;5100934;28;20012;-58
2022/05/24 08:14:23;;;;;;;4.20;2.22;;;;;;;22.98;41.88;93118.31;5099744;28;20511;-59
2022/05/24 08:16:49;;;;;;;6.75;2.30;;;;;;;24.47;39.82;93115.91;5099266;28;20015;-57
2022/05/24 08:19:14;;;;;;;2.10;1.60;;;;;;;25.40;35.82;93131.25;5100748;28;20084;-59
2022/05/24 08:21:39;;;;;;;13.00;3.15;;;;;;;25.11;35.72;93128.84;5098754;28;20034;-58
2022/05/24 08:24:05;;;;;;;5.88;2.30;;;;;;;24.32;37.85;93118.88;5100463;28;20022;-59
2022/05/24 08:26:31;;;;;;;7.78;2.63;;;;;;;24.12;38.57;93118.06;5100764;28;20032;-57
2022/05/24 08:28:56;;;;;;;4.03;2.28;;;;;;;23.70;38.93;93112.19;5101172;28;20042;-58
2022/05/24 08:31:22;;;;;;;2.28;2.08;;;;;;;23.40;39.38;93116.59;5098723;28;20015;-56
2022/05/24 08:33:49;;;;;;;4.18;2.42;;;;;;;23.57;39.82;93117.97;5099314;28;20011;-54
2022/05/24 08:36:14;;;;;;;5.10;2.33;;;;;;;23.66;41.64;93120.50;5100107;28;20026;-55
2022/05/24 08:38:42;;;;;;;5.15;2.40;;;;;;;24.04;39.96;93124.84;5095265;28;20043;-57
2022/05/24 08:41:14;;;;;;;4.88;2.10;;;;;;;24.83;39.06;93128.56;5100299;28;20077;-56
2022/05/24 08:43:51;;;;;;;7.68;2.53;;;;;;;25.70;37.01;93119.56;5100614;28;20106;-54
2022/05/24 08:49:15;;;;;;;3.03;2.33;;;;;;;28.26;33.47;93107.72;5102335;28;20039;-55
2022/05/24 08:51:55;;;;;;;3.75;1.90;;;;;;;28.86;31.47;93109.03;5099327;28;20054;-59
2022/05/24 08:54:41;;;;;;;3.17;2.03;;;;;;;29.40;31.13;93115.09;5098021;28;20398;-53
2022/05/24 08:57:10;;;;;;;2.47;2.22;;;;;;;30.38;29.34;93124.66;5103490;28;20039;-57
2022/05/24 09:00:08;;;;;;;3.60;2.17;;;;;;;31.35;27.84;93118.13;5101474;28;20122;-56
2022/05/24 09:02:35;;;;;;;8.82;4.65;;;;;;;31.50;28.29;93121.16;5098369;28;20120;-57
2022/05/24 09:05:00;;;;;;;6.10;2.45;;;;;;;30.85;28.27;93128.16;5102306;28;20502;-56
2022/05/24 09:07:39;;;;;;;2.58;2.00;;;;;;;30.27;29.24;93125.88;5098199;28;20040;-56
2022/05/24 09:10:20;;;;;;;3.05;2.67;;;;;;;29.97;29.94;93120.41;5100537;28;20031;-51
2022/05/24 09:12:51;;;;;;;8.65;2.47;;;;;;;30.94;28.89;93124.75;5099915;28;20073;-54
2022/05/24 09:18:58;;;;;;;6.18;2.53;;;;;;;33.72;27.09;93109.13;5094797;28;20078;-53
2022/05/24 09:21:28;;;;;;;4.03;2.42;;;;;;;33.10;25.71;93106.75;5103268;28;20035;-59
2022/05/24 09:24:09;;;;;;;5.50;2.60;;;;;;;32.57;26.79;93109.28;5101838;28;20027;-58
2022/05/24 09:27:10;;;;;;;6.40;2.70;;;;;;;33.26;26.26;93101.81;5098804;28;20023;-58
2022/05/24 09:30:11;;;;;;;4.35;2.33;;;;;;;34.07;24.84;93085.56;5095675;28;20432;-57
2022/05/24 09:32:37;;;;;;;3.35;2.70;;;;;;;33.71;24.77;93107.69;5080368;28;20478;-59
2022/05/24 09:35:24;;;;;;;6.93;3.17;;;;;;;32.74;27.67;93113.69;5095617;28;20016;-58
2022/05/24 09:38:13;;;;;;;5.13;2.70;;;;;;;31.76;27.51;93115.72;5097628;28;20024;-58
2022/05/24 09:40:54;;;;;;;5.10;3.53;;;;;;;30.49;29.60;93106.28;5096801;28;20172;-60
2022/05/24 09:43:29;;;;;;;5.88;3.33;;;;;;;31.46;28.77;93096.16;5097655;28;20035;-59
2022/05/24 09:46:03;;;;;;;6.60;2.95;;;;;;;32.90;27.88;93095.91;5096681;28;20015;-57
2022/05/24 09:48:32;;;;;;;7.75;2.88;;;;;;;33.82;27.58;93101.28;5101467;28;20031;-58
2022/05/24 09:50:59;;;;;;;2.75;2.22;;;;;;;34.50;24.86;93102.75;5102859;28;20584;-60
2022/05/24 09:53:28;;;;;;;4.00;2.75;;;;;;;33.05;26.60;93108.88;5099627;28;20020;-58
2022/05/24 09:56:05;;;;;;;4.00;2.88;;;;;;;33.69;26.39;93101.97;5098709;28;20015;-59
2022/05/24 09:58:36;;;;;;;3.75;2.90;;;;;;;34.55;24.16;93098.47;5102848;28;20074;-59
2022/05/24 10:01:09;;;;;;;8.05;2.90;;;;;;;34.54;26.80;93100.63;5102072;28;20115;-58
2022/05/24 10:03:48;;;;;;;5.47;2.67;;;;;;;34.88;25.08;93099.84;5102023;28;20028;-59
2022/05/24 10:06:20;;;;;;;7.20;3.08;;;;;;;35.25;24.85;93094.72;5100960;28;20496;-59
2022/05/24 10:09:04;;;;;;;29.95;4.78;;;;;;;36.10;23.75;93095.00;5099712;28;20588;-59
2022/05/24 10:11:38;;;;;;;10.38;2.92;;;;;;;37.50;23.15;93098.00;5099289;28;20430;-59
2022/05/24 10:14:13;;;;;;;6.88;3.00;;;;;;;37.14;21.13;93094.06;5101487;28;20022;-56
2022/05/24 10:17:02;;;;;;;9.18;3.90;;;;;;;37.09;21.10;93081.19;5101518;28;20032;-57
2022/05/24 10:19:42;;;;;;;4.93;3.00;;;;;;;37.04;21.94;93081.94;5099609;28;20039;-59
2022/05/24 10:22:36;;;;;;;5.30;2.92;;;;;;;36.30;22.36;93100.63;5099275;28;20405;-57
2022/05/24 10:25:26;;;;;;;4.95;3.20;;;;;;;35.86;23.09;93098.03;5100124;28;20046;-59
2022/05/24 10:28:20;;;;;;;6.75;3.20;;;;;;;35.03;24.32;93095.50;5098528;28;20020;-59
2022/05/24 10:31:04;;;;;;;20.88;4.97;;;;;;;33.48;26.15;93095.44;5098454;28;20023;-59
2022/05/24 10:39:48;;;;;;;7.95;3.72;;;;;;;33.87;26.23;93076.22;5096502;28;20043;-58
2022/05/24 10:42:49;;;;;;;6.82;3.08;;;;;;;34.94;26.96;93083.31;5100685;28;20023;-57
2022/05/24 10:45:17;;;;;;;8.77;3.92;;;;;;;35.71;24.44;93080.16;5092432;28;20513;-60
2022/05/24 10:48:04;;;;;;;6.15;3.65;;;;;;;34.77;24.95;93078.34;5106836;28;20030;-57
2022/05/24 10:50:41;;;;;;;5.67;3.73;;;;;;;34.09;27.57;93071.22;5098148;28;20144;-59
2022/05/24 10:53:12;;;;;;;9.37;4.30;;;;;;;33.72;27.07;93072.63;5091896;28;20501;-60
2022/05/24 10:55:41;;;;;;;10.35;3.63;;;;;;;33.39;27.56;93077.53;5090336;28;20088;-57
2022/05/24 10:58:11;;;;;;;11.10;4.03;;;;;;;31.87;31.04;93092.28;5088178;28;20024;-59
2022/05/24 11:00:56;;;;;;;6.95;3.47;;;;;;;29.68;33.95;93104.25;5098239;28;20062;-59
2022/05/24 11:03:28;;;;;;;13.40;4.13;;;;;;;28.15;37.03;93106.03;5106365;28;20035;-58
2022/05/24 11:06:13;;;;;;;22.58;4.13;;;;;;;27.45;39.52;93100.03;5115865;27;20425;-58
2022/05/24 11:08:51;;;;;;;5.65;3.35;;;;;;;26.98;40.58;93089.53;5091999;28;20035;-59
2022/05/24 11:11:42;;;;;;;4.63;3.10;;;;;;;27.26;42.19;93086.75;5091279;28;20039;-58
2022/05/24 11:14:10;;;;;;;4.25;3.00;;;;;;;27.31;38.43;93102.44;5091275;28;20467;-60
2022/05/24 11:16:40;;;;;;;3.63;3.33;;;;;;;26.54;40.50;93104.50;5089863;28;20031;-59
2022/05/24 11:19:16;;;;;;;40.22;4.88;;;;;;;25.97;41.36;93105.59;5089728;28;20020;-59
2022/05/24 11:21:47;;;;;;;6.75;3.10;;;;;;;26.18;43.91;93078.69;5088274;28;20591;-59
2022/05/24 11:24:31;;;;;;;7.97;3.63;;;;;;;26.74;41.56;93083.19;5089343;28;20024;-59
2022/05/24 11:27:00;;;;;;;4.93;3.17;;;;;;;26.63;42.08;93064.44;5089728;28;20034;-59
2022/05/24 11:29:52;;;;;;;7.65;3.08;;;;;;;27.34;43.11;93060.72;5088145;28;20031;-59
2022/05/24 11:32:46;;;;;;;5.55;2.92;;;;;;;27.63;41.33;93046.63;5089563;28;20036;-59
2022/05/24 11:35:26;;;;;;;5.53;3.17;;;;;;;28.17;39.89;93029.44;5089437;28;20489;-59
2022/05/24 11:38:08;;;;;;;4.03;2.78;;;;;;;28.58;39.48;93031.03;5091336;28;20059;-59
2022/05/24 11:40:38;;;;;;;3.65;3.10;;;;;;;28.85;38.60;93035.81;5091378;28;20408;-59
2022/05/24 11:43:28;;;;;;;12.07;4.60;;;;;;;28.96;38.09;93028.94;5091333;28;20020;-59
2022/05/24 11:45:57;;;;;;;6.72;3.00;;;;;;;29.02;35.75;93023.38;5091172;28;20042;-59
2022/05/24 11:48:23;;;;;;;;;;;;;;;28.79;36.63;93021.50;5091704;28;20030;-59
2022/05/24 11:50:52;;;;;;;6.72;3.38;;;;;;;28.89;40.15;93016.03;5106971;28;19908;-59
2022/05/24 11:53:17;;;;;;;27.70;5.22;;;;;;;28.84;38.34;93031.56;5090216;28;20062;-60
2022/05/24 11:55:46;;;;;;;6.22;3.40;;;;;;;29.04;37.36;93014.88;5091114;28;20178;-60
2022/05/24 11:58:21;;;;;;;4.93;3.58;;;;;;;29.29;35.87;93018.91;5106686;28;20039;-59
2022/05/24 12:01:28;;;;;;;28.52;4.80;;;;;;;28.96;36.82;93006.91;5111339;28;20053;-60
2022/05/24 12:09:59;;;;;;;5.18;3.58;;;;;;;29.18;36.80;93013.03;5109812;28;20050;-60
2022/05/24 12:12:33;;;;;;;23.10;5.20;;;;;;;29.55;37.27;93003.00;5111355;28;20098;-60
2022/05/24 12:15:20;;;;;;;5.25;3.55;;;;;;;29.30;36.06;93012.56;5111486;28;20038;-60
2022/05/24 12:17:52;;;;;;;9.73;3.85;;;;;;;29.14;37.87;92978.09;5111052;28;20027;-60
2022/05/24 12:20:32;;;;;;;8.85;3.88;;;;;;;29.28;36.27;92998.31;5111092;28;20024;-60
2022/05/24 12:23:04;;;;;;;7.25;4.20;;;;;;;29.01;37.28;92993.50;5111343;28;20106;-60
2022/05/24 12:26:03;;;;;;;7.20;3.97;;;;;;;28.98;36.55;92992.75;5110862;28;20031;-60
2022/05/24 12:28:44;;;;;;;10.45;4.03;;;;;;;29.06;37.49;92997.88;5110910;28;20031;-60
2022/05/24 12:31:13;;;;;;;7.25;4.10;;;;;;;29.08;37.62;93006.44;5110907;28;20059;-60
2022/05/24 12:33:49;;;;;;;4.47;4.07;;;;;;;29.18;37.57;93004.50;5110919;28;20065;-59
2022/05/24 12:36:31;;;;;;;5.88;4.13;;;;;;;29.16;37.73;93001.63;5110792;28;20083;-60